sensor_id;sensor_type;location;lat;lon;timestamp;temperature;humidity
7572;DHT22;3827;49.928;8.548;2022-08-25T00:01:32;20.20;1.00
7572;DHT22;3827;49.928;8.548;2022-08-25T00:04:00;20.20;1.00
7572;DHT22;3827;49.928;8.548;2022-08-25T00:06:28;20.20;1.00
7572;DHT22;3827;49.928;8.548;2022-08-25T00:08:54;20.10;1.00
7572;DHT22;3827;49.928;8.548;2022-08-25T00:11:27;20.10;1.00
7572;DHT22;3827;49.928;8.548;2022-08-25T00:13:56;20.10;1.00
7572;DHT22;3827;49.928;8.548;2022-08-25T00:16:25;20.00;1.00
7572;DHT22;3827;49.928;8.548;2022-08-25T00:18:56;20.00;1.00
7572;DHT22;3827;49.928;8.548;2022-08-25T00:21:24;20.00;1.00
7572;DHT22;3827;49.928;8.548;2022-08-25T00:23:51;20.00;1.00
7572;DHT22;3827;49.928;8.548;2022-08-25T00:26:18;19.90;1.00
7572;DHT22;3827;49.928;8.548;2022-08-25T00:28:45;19.90;1.00
7572;DHT22;3827;49.928;8.548;2022-08-25T00:31:13;19.90;1.00
7572;DHT22;3827;49.928;8.548;2022-08-25T00:33:40;19.80;1.00
7572;DHT22;3827;49.928;8.548;2022-08-25T00:36:09;19.80;1.00
7572;DHT22;3827;49.928;8.548;2022-08-25T00:38:37;19.80;1.00
7572;DHT22;3827;49.928;8.548;2022-08-25T00:41:04;19.70;1.00
7572;DHT22;3827;49.928;8.548;2022-08-25T00:43:43;19.70;1.00
7572;DHT22;3827;49.928;8.548;2022-08-25T00:46:11;19.60;1.00
7572;DHT22;3827;49.928;8.548;2022-08-25T00:48:39;19.60;1.00
7572;DHT22;3827;49.928;8.548;2022-08-25T00:51:11;19.60;1.00
7572;DHT22;3827;49.928;8.548;2022-08-25T00:53:40;19.60;1.00
7572;DHT22;3827;49.928;8.548;2022-08-25T00:56:07;19.60;1.00
7572;DHT22;3827;49.928;8.548;2022-08-25T00:58:34;19.60;1.00
7572;DHT22;3827;49.928;8.548;2022-08-25T01:01:02;19.60;1.00
7572;DHT22;3827;49.928;8.548;2022-08-25T01:03:30;19.50;1.00
7572;DHT22;3827;49.928;8.548;2022-08-25T01:05:59;19.50;1.00
7572;DHT22;3827;49.928;8.548;2022-08-25T01:08:29;19.50;1.00
7572;DHT22;3827;49.928;8.548;2022-08-25T01:10:58;19.40;1.00
7572;DHT22;3827;49.928;8.548;2022-08-25T01:13:30;19.40;1.00
7572;DHT22;3827;49.928;8.548;2022-08-25T01:15:58;19.30;1.00
7572;DHT22;3827;49.928;8.548;2022-08-25T01:18:25;19.30;1.00
7572;DHT22;3827;49.928;8.548;2022-08-25T01:20:54;19.20;1.00
7572;DHT22;3827;49.928;8.548;2022-08-25T01:23:23;19.10;1.00
7572;DHT22;3827;49.928;8.548;2022-08-25T01:25:55;19.10;1.00
7572;DHT22;3827;49.928;8.548;2022-08-25T01:28:24;19.00;1.00
7572;DHT22;3827;49.928;8.548;2022-08-25T01:30:51;18.80;1.00
7572;DHT22;3827;49.928;8.548;2022-08-25T01:33:18;18.70;1.00
7572;DHT22;3827;49.928;8.548;2022-08-25T01:35:46;18.70;1.00
7572;DHT22;3827;49.928;8.548;2022-08-25T01:38:15;18.60;1.00
7572;DHT22;3827;49.928;8.548;2022-08-25T01:40:42;18.70;1.00
7572;DHT22;3827;49.928;8.548;2022-08-25T01:43:20;18.70;1.00
7572;DHT22;3827;49.928;8.548;2022-08-25T01:45:47;18.70;1.00
7572;DHT22;3827;49.928;8.548;2022-08-25T01:48:15;18.70;1.00
7572;DHT22;3827;49.928;8.548;2022-08-25T01:50:43;18.70;1.00
7572;DHT22;3827;49.928;8.548;2022-08-25T01:53:12;18.70;1.00
7572;DHT22;3827;49.928;8.548;2022-08-25T01:55:44;18.70;1.00
7572;DHT22;3827;49.928;8.548;2022-08-25T01:58:20;18.60;99.90
7572;DHT22;3827;49.928;8.548;2022-08-25T02:00:48;18.60;99.90
7572;DHT22;3827;49.928;8.548;2022-08-25T02:03:16;18.60;99.90
7572;DHT22;3827;49.928;8.548;2022-08-25T02:05:44;18.60;99.90
7572;DHT22;3827;49.928;8.548;2022-08-25T02:08:11;18.50;99.90
7572;DHT22;3827;49.928;8.548;2022-08-25T02:10:39;18.50;99.90
7572;DHT22;3827;49.928;8.548;2022-08-25T02:13:08;18.50;99.90
7572;DHT22;3827;49.928;8.548;2022-08-25T02:15:40;18.40;99.90
7572;DHT22;3827;49.928;8.548;2022-08-25T02:18:08;18.40;99.90
7572;DHT22;3827;49.928;8.548;2022-08-25T02:20:35;18.30;99.90
7572;DHT22;3827;49.928;8.548;2022-08-25T02:23:03;18.30;99.90
7572;DHT22;3827;49.928;8.548;2022-08-25T02:25:31;18.30;99.90
7572;DHT22;3827;49.928;8.548;2022-08-25T02:27:58;18.30;99.90
7572;DHT22;3827;49.928;8.548;2022-08-25T02:30:27;18.30;99.90
7572;DHT22;3827;49.928;8.548;2022-08-25T02:32:54;18.30;99.90
7572;DHT22;3827;49.928;8.548;2022-08-25T02:35:20;18.30;99.90
7572;DHT22;3827;49.928;8.548;2022-08-25T02:37:49;18.30;99.90
7572;DHT22;3827;49.928;8.548;2022-08-25T02:40:17;18.40;99.90
7572;DHT22;3827;49.928;8.548;2022-08-25T02:42:46;18.40;99.90
7572;DHT22;3827;49.928;8.548;2022-08-25T02:45:13;18.50;99.90
7572;DHT22;3827;49.928;8.548;2022-08-25T02:47:41;18.60;99.90
7572;DHT22;3827;49.928;8.548;2022-08-25T02:50:08;18.60;99.90
7572;DHT22;3827;49.928;8.548;2022-08-25T02:52:36;18.60;99.90
7572;DHT22;3827;49.928;8.548;2022-08-25T02:55:07;18.70;99.90
7572;DHT22;3827;49.928;8.548;2022-08-25T02:57:34;18.70;99.90
7572;DHT22;3827;49.928;8.548;2022-08-25T03:00:04;18.70;99.90
7572;DHT22;3827;49.928;8.548;2022-08-25T03:02:31;18.70;99.90
7572;DHT22;3827;49.928;8.548;2022-08-25T03:05:00;18.80;99.90
7572;DHT22;3827;49.928;8.548;2022-08-25T03:07:27;18.80;99.90
7572;DHT22;3827;49.928;8.548;2022-08-25T03:09:54;18.80;99.90
7572;DHT22;3827;49.928;8.548;2022-08-25T03:12:21;18.80;99.90
7572;DHT22;3827;49.928;8.548;2022-08-25T03:14:48;18.80;99.90
7572;DHT22;3827;49.928;8.548;2022-08-25T03:17:15;18.80;99.90
7572;DHT22;3827;49.928;8.548;2022-08-25T03:19:41;18.80;99.90
7572;DHT22;3827;49.928;8.548;2022-08-25T03:22:10;18.80;99.90
7572;DHT22;3827;49.928;8.548;2022-08-25T03:24:37;18.80;99.90
7572;DHT22;3827;49.928;8.548;2022-08-25T03:27:03;18.70;99.90
7572;DHT22;3827;49.928;8.548;2022-08-25T03:29:31;18.70;99.90
7572;DHT22;3827;49.928;8.548;2022-08-25T03:31:59;18.70;99.90
7572;DHT22;3827;49.928;8.548;2022-08-25T03:34:27;18.70;99.90
7572;DHT22;3827;49.928;8.548;2022-08-25T03:36:56;18.60;99.90
7572;DHT22;3827;49.928;8.548;2022-08-25T03:39:25;18.70;99.90
7572;DHT22;3827;49.928;8.548;2022-08-25T03:41:53;18.70;99.90
7572;DHT22;3827;49.928;8.548;2022-08-25T03:44:20;18.70;99.90
7572;DHT22;3827;49.928;8.548;2022-08-25T03:46:50;18.60;99.90
7572;DHT22;3827;49.928;8.548;2022-08-25T03:49:19;18.60;99.90
7572;DHT22;3827;49.928;8.548;2022-08-25T03:51:48;18.60;99.90
7572;DHT22;3827;49.928;8.548;2022-08-25T03:54:17;18.60;99.90
7572;DHT22;3827;49.928;8.548;2022-08-25T03:56:46;18.60;99.90
7572;DHT22;3827;49.928;8.548;2022-08-25T03:59:13;18.60;99.90
7572;DHT22;3827;49.928;8.548;2022-08-25T04:01:41;18.60;99.90
7572;DHT22;3827;49.928;8.548;2022-08-25T04:04:09;18.70;99.90
7572;DHT22;3827;49.928;8.548;2022-08-25T04:06:37;18.60;99.90
7572;DHT22;3827;49.928;8.548;2022-08-25T04:09:04;18.60;99.90
7572;DHT22;3827;49.928;8.548;2022-08-25T04:11:31;18.50;99.90
7572;DHT22;3827;49.928;8.548;2022-08-25T04:14:00;18.40;99.90
7572;DHT22;3827;49.928;8.548;2022-08-25T04:16:32;18.40;99.90
7572;DHT22;3827;49.928;8.548;2022-08-25T04:19:01;18.40;99.90
7572;DHT22;3827;49.928;8.548;2022-08-25T04:21:28;18.40;99.90
7572;DHT22;3827;49.928;8.548;2022-08-25T04:23:56;18.30;99.90
7572;DHT22;3827;49.928;8.548;2022-08-25T04:26:27;18.30;99.90
7572;DHT22;3827;49.928;8.548;2022-08-25T04:28:55;18.30;99.90
7572;DHT22;3827;49.928;8.548;2022-08-25T04:31:27;18.30;99.90
7572;DHT22;3827;49.928;8.548;2022-08-25T04:33:56;18.20;99.90
7572;DHT22;3827;49.928;8.548;2022-08-25T04:36:24;18.20;99.90
7572;DHT22;3827;49.928;8.548;2022-08-25T04:38:50;18.20;99.90
7572;DHT22;3827;49.928;8.548;2022-08-25T04:41:20;18.10;99.90
7572;DHT22;3827;49.928;8.548;2022-08-25T04:43:47;18.10;99.90
7572;DHT22;3827;49.928;8.548;2022-08-25T04:46:16;18.10;99.90
7572;DHT22;3827;49.928;8.548;2022-08-25T04:48:44;18.10;99.90
7572;DHT22;3827;49.928;8.548;2022-08-25T04:51:15;18.10;99.90
7572;DHT22;3827;49.928;8.548;2022-08-25T04:53:42;18.10;99.90
7572;DHT22;3827;49.928;8.548;2022-08-25T04:56:11;18.10;99.90
7572;DHT22;3827;49.928;8.548;2022-08-25T04:58:39;18.10;99.90
7572;DHT22;3827;49.928;8.548;2022-08-25T05:01:08;18.20;99.90
7572;DHT22;3827;49.928;8.548;2022-08-25T05:03:35;18.20;99.90
7572;DHT22;3827;49.928;8.548;2022-08-25T05:06:04;18.20;99.90
7572;DHT22;3827;49.928;8.548;2022-08-25T05:08:32;18.20;99.90
7572;DHT22;3827;49.928;8.548;2022-08-25T05:11:04;18.20;99.90
7572;DHT22;3827;49.928;8.548;2022-08-25T05:13:31;18.30;99.90
7572;DHT22;3827;49.928;8.548;2022-08-25T05:15:59;18.30;99.90
7572;DHT22;3827;49.928;8.548;2022-08-25T05:18:27;18.30;99.90
7572;DHT22;3827;49.928;8.548;2022-08-25T05:20:55;18.30;99.90
7572;DHT22;3827;49.928;8.548;2022-08-25T05:23:24;18.30;99.90
7572;DHT22;3827;49.928;8.548;2022-08-25T05:25:51;18.30;99.90
7572;DHT22;3827;49.928;8.548;2022-08-25T05:28:19;18.30;99.90
7572;DHT22;3827;49.928;8.548;2022-08-25T05:30:47;18.30;99.90
7572;DHT22;3827;49.928;8.548;2022-08-25T05:33:15;18.40;99.90
7572;DHT22;3827;49.928;8.548;2022-08-25T05:35:43;18.40;99.90
7572;DHT22;3827;49.928;8.548;2022-08-25T05:38:09;18.50;99.90
7572;DHT22;3827;49.928;8.548;2022-08-25T05:40:38;18.50;99.90
7572;DHT22;3827;49.928;8.548;2022-08-25T05:43:05;18.60;99.90
7572;DHT22;3827;49.928;8.548;2022-08-25T05:45:31;18.60;99.90
7572;DHT22;3827;49.928;8.548;2022-08-25T05:47:58;18.80;99.90
7572;DHT22;3827;49.928;8.548;2022-08-25T05:50:25;18.90;99.90
7572;DHT22;3827;49.928;8.548;2022-08-25T05:52:52;19.00;99.90
7572;DHT22;3827;49.928;8.548;2022-08-25T05:55:19;19.10;99.90
7572;DHT22;3827;49.928;8.548;2022-08-25T05:57:47;19.20;99.90
7572;DHT22;3827;49.928;8.548;2022-08-25T06:00:15;19.30;99.90
7572;DHT22;3827;49.928;8.548;2022-08-25T06:02:43;19.50;99.90
7572;DHT22;3827;49.928;8.548;2022-08-25T06:05:12;19.60;99.90
7572;DHT22;3827;49.928;8.548;2022-08-25T06:07:39;19.70;99.90
7572;DHT22;3827;49.928;8.548;2022-08-25T06:10:07;19.80;99.90
7572;DHT22;3827;49.928;8.548;2022-08-25T06:12:37;19.90;99.90
7572;DHT22;3827;49.928;8.548;2022-08-25T06:15:07;20.00;99.90
7572;DHT22;3827;49.928;8.548;2022-08-25T06:17:34;20.10;99.90
7572;DHT22;3827;49.928;8.548;2022-08-25T06:20:06;20.20;99.90
7572;DHT22;3827;49.928;8.548;2022-08-25T06:22:33;20.30;99.90
7572;DHT22;3827;49.928;8.548;2022-08-25T06:25:02;20.40;99.90
7572;DHT22;3827;49.928;8.548;2022-08-25T06:27:29;20.40;99.90
7572;DHT22;3827;49.928;8.548;2022-08-25T06:29:56;20.50;99.90
7572;DHT22;3827;49.928;8.548;2022-08-25T06:32:24;20.70;99.90
7572;DHT22;3827;49.928;8.548;2022-08-25T06:34:51;20.80;99.90
7572;DHT22;3827;49.928;8.548;2022-08-25T06:37:18;20.90;99.90
7572;DHT22;3827;49.928;8.548;2022-08-25T06:39:45;21.00;99.90
7572;DHT22;3827;49.928;8.548;2022-08-25T06:42:12;21.10;99.90
7572;DHT22;3827;49.928;8.548;2022-08-25T06:44:39;21.20;99.90
7572;DHT22;3827;49.928;8.548;2022-08-25T06:47:06;21.40;99.90
7572;DHT22;3827;49.928;8.548;2022-08-25T06:49:34;21.50;99.90
7572;DHT22;3827;49.928;8.548;2022-08-25T06:52:01;21.60;99.90
7572;DHT22;3827;49.928;8.548;2022-08-25T06:54:28;21.70;99.90
7572;DHT22;3827;49.928;8.548;2022-08-25T06:56:55;21.80;99.90
7572;DHT22;3827;49.928;8.548;2022-08-25T06:59:21;22.00;99.90
7572;DHT22;3827;49.928;8.548;2022-08-25T07:01:48;22.10;99.90
7572;DHT22;3827;49.928;8.548;2022-08-25T07:04:15;22.10;99.90
7572;DHT22;3827;49.928;8.548;2022-08-25T07:06:43;22.20;99.90
7572;DHT22;3827;49.928;8.548;2022-08-25T07:09:11;22.40;99.90
7572;DHT22;3827;49.928;8.548;2022-08-25T07:11:38;22.40;99.90
7572;DHT22;3827;49.928;8.548;2022-08-25T07:14:07;22.60;99.90
7572;DHT22;3827;49.928;8.548;2022-08-25T07:16:36;22.70;99.90
7572;DHT22;3827;49.928;8.548;2022-08-25T07:19:03;22.80;99.90
7572;DHT22;3827;49.928;8.548;2022-08-25T07:21:33;22.80;99.90
7572;DHT22;3827;49.928;8.548;2022-08-25T07:24:04;22.90;99.90
7572;DHT22;3827;49.928;8.548;2022-08-25T07:26:32;23.00;99.90
7572;DHT22;3827;49.928;8.548;2022-08-25T07:29:00;23.20;99.90
7572;DHT22;3827;49.928;8.548;2022-08-25T07:31:27;23.20;99.90
7572;DHT22;3827;49.928;8.548;2022-08-25T07:33:54;23.30;99.90
7572;DHT22;3827;49.928;8.548;2022-08-25T07:36:38;23.60;99.90
7572;DHT22;3827;49.928;8.548;2022-08-25T07:39:07;23.70;99.90
7572;DHT22;3827;49.928;8.548;2022-08-25T07:41:36;23.90;99.90
7572;DHT22;3827;49.928;8.548;2022-08-25T07:44:03;24.10;99.90
7572;DHT22;3827;49.928;8.548;2022-08-25T07:46:30;24.20;99.90
7572;DHT22;3827;49.928;8.548;2022-08-25T07:48:58;24.20;99.90
7572;DHT22;3827;49.928;8.548;2022-08-25T07:51:25;24.40;99.90
7572;DHT22;3827;49.928;8.548;2022-08-25T07:53:52;24.50;99.90
7572;DHT22;3827;49.928;8.548;2022-08-25T07:56:20;24.60;99.90
7572;DHT22;3827;49.928;8.548;2022-08-25T07:58:47;24.70;99.90
7572;DHT22;3827;49.928;8.548;2022-08-25T08:01:15;24.80;99.90
7572;DHT22;3827;49.928;8.548;2022-08-25T08:03:43;25.00;99.90
7572;DHT22;3827;49.928;8.548;2022-08-25T08:06:12;25.10;99.90
7572;DHT22;3827;49.928;8.548;2022-08-25T08:08:40;25.10;99.90
7572;DHT22;3827;49.928;8.548;2022-08-25T08:11:14;25.30;99.90
7572;DHT22;3827;49.928;8.548;2022-08-25T08:13:43;25.40;99.90
7572;DHT22;3827;49.928;8.548;2022-08-25T08:16:10;25.50;99.90
7572;DHT22;3827;49.928;8.548;2022-08-25T08:18:37;25.60;99.90
7572;DHT22;3827;49.928;8.548;2022-08-25T08:21:10;25.70;99.90
7572;DHT22;3827;49.928;8.548;2022-08-25T08:23:37;25.70;99.90
7572;DHT22;3827;49.928;8.548;2022-08-25T08:26:04;25.70;99.90
7572;DHT22;3827;49.928;8.548;2022-08-25T08:28:31;26.00;99.90
7572;DHT22;3827;49.928;8.548;2022-08-25T08:30:59;26.20;99.90
7572;DHT22;3827;49.928;8.548;2022-08-25T08:33:26;26.30;99.90
7572;DHT22;3827;49.928;8.548;2022-08-25T08:35:58;26.30;99.90
7572;DHT22;3827;49.928;8.548;2022-08-25T08:38:26;26.40;99.90
7572;DHT22;3827;49.928;8.548;2022-08-25T08:40:59;26.60;99.90
7572;DHT22;3827;49.928;8.548;2022-08-25T08:43:46;26.50;99.90
7572;DHT22;3827;49.928;8.548;2022-08-25T08:46:18;26.60;99.90
7572;DHT22;3827;49.928;8.548;2022-08-25T08:48:56;26.60;99.90
7572;DHT22;3827;49.928;8.548;2022-08-25T08:51:28;26.80;99.90
7572;DHT22;3827;49.928;8.548;2022-08-25T08:54:01;26.90;99.90
7572;DHT22;3827;49.928;8.548;2022-08-25T08:56:35;26.90;99.90
7572;DHT22;3827;49.928;8.548;2022-08-25T08:59:05;27.00;99.90
7572;DHT22;3827;49.928;8.548;2022-08-25T09:01:43;27.00;99.90
7572;DHT22;3827;49.928;8.548;2022-08-25T09:04:14;27.00;99.90
7572;DHT22;3827;49.928;8.548;2022-08-25T09:06:45;27.20;99.90
7572;DHT22;3827;49.928;8.548;2022-08-25T09:09:15;27.30;99.90
7572;DHT22;3827;49.928;8.548;2022-08-25T09:11:52;27.40;99.90
7572;DHT22;3827;49.928;8.548;2022-08-25T09:14:35;27.60;99.90
7572;DHT22;3827;49.928;8.548;2022-08-25T09:17:10;27.60;99.90
7572;DHT22;3827;49.928;8.548;2022-08-25T09:20:06;27.90;99.90
7572;DHT22;3827;49.928;8.548;2022-08-25T09:22:42;28.20;99.90
7572;DHT22;3827;49.928;8.548;2022-08-25T09:25:18;28.10;99.90
7572;DHT22;3827;49.928;8.548;2022-08-25T09:27:54;28.10;99.90
7572;DHT22;3827;49.928;8.548;2022-08-25T09:30:23;28.10;99.90
7572;DHT22;3827;49.928;8.548;2022-08-25T09:32:53;28.40;99.90
7572;DHT22;3827;49.928;8.548;2022-08-25T09:35:30;28.60;99.90
7572;DHT22;3827;49.928;8.548;2022-08-25T09:37:59;28.80;99.90
7572;DHT22;3827;49.928;8.548;2022-08-25T09:40:28;29.00;99.90
7572;DHT22;3827;49.928;8.548;2022-08-25T09:42:57;29.20;99.90
7572;DHT22;3827;49.928;8.548;2022-08-25T09:45:40;29.30;99.90
7572;DHT22;3827;49.928;8.548;2022-08-25T09:48:27;29.50;99.90
7572;DHT22;3827;49.928;8.548;2022-08-25T09:50:58;29.60;99.90
7572;DHT22;3827;49.928;8.548;2022-08-25T09:53:27;29.80;99.90
7572;DHT22;3827;49.928;8.548;2022-08-25T09:56:00;29.80;99.90
7572;DHT22;3827;49.928;8.548;2022-08-25T09:58:30;29.90;99.90
7572;DHT22;3827;49.928;8.548;2022-08-25T10:01:06;29.50;99.90
7572;DHT22;3827;49.928;8.548;2022-08-25T10:03:56;29.30;99.90
7572;DHT22;3827;49.928;8.548;2022-08-25T10:06:24;29.60;99.90
7572;DHT22;3827;49.928;8.548;2022-08-25T10:08:57;29.80;99.90
7572;DHT22;3827;49.928;8.548;2022-08-25T10:11:38;30.40;99.90
7572;DHT22;3827;49.928;8.548;2022-08-25T10:14:17;30.70;99.90
7572;DHT22;3827;49.928;8.548;2022-08-25T10:16:45;30.90;99.90
7572;DHT22;3827;49.928;8.548;2022-08-25T10:19:22;31.00;99.90
7572;DHT22;3827;49.928;8.548;2022-08-25T10:22:04;31.30;99.90
7572;DHT22;3827;49.928;8.548;2022-08-25T10:24:31;30.90;99.90
7572;DHT22;3827;49.928;8.548;2022-08-25T10:27:02;31.10;99.90
7572;DHT22;3827;49.928;8.548;2022-08-25T10:29:44;31.10;99.90
7572;DHT22;3827;49.928;8.548;2022-08-25T10:32:23;31.10;99.90
7572;DHT22;3827;49.928;8.548;2022-08-25T10:34:56;31.40;99.90
7572;DHT22;3827;49.928;8.548;2022-08-25T10:37:33;31.70;99.90
7572;DHT22;3827;49.928;8.548;2022-08-25T10:40:08;31.90;99.90
7572;DHT22;3827;49.928;8.548;2022-08-25T10:42:41;32.40;99.90
7572;DHT22;3827;49.928;8.548;2022-08-25T10:45:18;32.20;99.90
7572;DHT22;3827;49.928;8.548;2022-08-25T10:48:31;32.30;99.90
7572;DHT22;3827;49.928;8.548;2022-08-25T10:51:07;32.40;99.90
7572;DHT22;3827;49.928;8.548;2022-08-25T10:53:45;31.90;99.90
7572;DHT22;3827;49.928;8.548;2022-08-25T10:56:17;32.10;99.90
7572;DHT22;3827;49.928;8.548;2022-08-25T10:59:05;32.50;99.90
7572;DHT22;3827;49.928;8.548;2022-08-25T11:01:46;32.70;99.90
7572;DHT22;3827;49.928;8.548;2022-08-25T11:04:19;32.70;99.90
7572;DHT22;3827;49.928;8.548;2022-08-25T11:06:56;32.50;99.90
7572;DHT22;3827;49.928;8.548;2022-08-25T11:09:27;32.00;99.90
7572;DHT22;3827;49.928;8.548;2022-08-25T11:11:59;32.20;99.90
7572;DHT22;3827;49.928;8.548;2022-08-25T11:14:30;32.60;99.90
7572;DHT22;3827;49.928;8.548;2022-08-25T11:17:02;32.90;99.90
7572;DHT22;3827;49.928;8.548;2022-08-25T11:19:32;33.50;99.90
7572;DHT22;3827;49.928;8.548;2022-08-25T11:22:06;33.70;99.90
7572;DHT22;3827;49.928;8.548;2022-08-25T11:24:45;33.40;99.90
7572;DHT22;3827;49.928;8.548;2022-08-25T11:27:19;33.50;99.90
7572;DHT22;3827;49.928;8.548;2022-08-25T11:29:56;33.30;99.90
7572;DHT22;3827;49.928;8.548;2022-08-25T11:32:25;33.00;99.90
7572;DHT22;3827;49.928;8.548;2022-08-25T11:34:52;32.50;99.90
7572;DHT22;3827;49.928;8.548;2022-08-25T11:37:24;32.30;99.90
7572;DHT22;3827;49.928;8.548;2022-08-25T11:40:18;32.00;99.90
7572;DHT22;3827;49.928;8.548;2022-08-25T11:42:57;32.00;99.90
7572;DHT22;3827;49.928;8.548;2022-08-25T11:45:49;32.20;99.90
7572;DHT22;3827;49.928;8.548;2022-08-25T11:48:27;31.70;99.90
7572;DHT22;3827;49.928;8.548;2022-08-25T11:51:00;31.30;99.90
7572;DHT22;3827;49.928;8.548;2022-08-25T11:53:31;31.10;99.90
7572;DHT22;3827;49.928;8.548;2022-08-25T11:56:00;30.80;99.90
7572;DHT22;3827;49.928;8.548;2022-08-25T11:58:52;30.80;99.90
7572;DHT22;3827;49.928;8.548;2022-08-25T12:04:37;31.00;99.90
7572;DHT22;3827;49.928;8.548;2022-08-25T12:07:23;30.90;99.90
7572;DHT22;3827;49.928;8.548;2022-08-25T12:10:14;31.00;99.90
7572;DHT22;3827;49.928;8.548;2022-08-25T12:13:02;31.80;99.90
7572;DHT22;3827;49.928;8.548;2022-08-25T12:15:33;32.30;99.90
7572;DHT22;3827;49.928;8.548;2022-08-25T12:18:41;32.80;99.90
7572;DHT22;3827;49.928;8.548;2022-08-25T12:21:15;33.80;99.90
7572;DHT22;3827;49.928;8.548;2022-08-25T12:23:43;33.90;99.90
7572;DHT22;3827;49.928;8.548;2022-08-25T12:26:18;34.20;99.90
7572;DHT22;3827;49.928;8.548;2022-08-25T12:28:56;34.40;99.90
7572;DHT22;3827;49.928;8.548;2022-08-25T12:31:42;34.20;99.90
7572;DHT22;3827;49.928;8.548;2022-08-25T12:34:30;33.60;99.90
7572;DHT22;3827;49.928;8.548;2022-08-25T12:37:09;34.60;99.90
7572;DHT22;3827;49.928;8.548;2022-08-25T12:39:43;34.60;99.90
7572;DHT22;3827;49.928;8.548;2022-08-25T12:42:22;34.90;99.90
7572;DHT22;3827;49.928;8.548;2022-08-25T12:45:12;34.80;99.90
7572;DHT22;3827;49.928;8.548;2022-08-25T12:47:41;34.20;99.90
7572;DHT22;3827;49.928;8.548;2022-08-25T12:50:30;34.40;99.90
7572;DHT22;3827;49.928;8.548;2022-08-25T12:53:08;35.00;99.90
7572;DHT22;3827;49.928;8.548;2022-08-25T12:55:37;34.80;99.90
7572;DHT22;3827;49.928;8.548;2022-08-25T12:58:07;34.30;99.90
7572;DHT22;3827;49.928;8.548;2022-08-25T13:00:44;34.60;99.90
7572;DHT22;3827;49.928;8.548;2022-08-25T13:03:31;34.80;99.90
7572;DHT22;3827;49.928;8.548;2022-08-25T13:06:18;35.20;99.90
7572;DHT22;3827;49.928;8.548;2022-08-25T13:11:55;34.10;99.90
7572;DHT22;3827;49.928;8.548;2022-08-25T13:14:32;34.30;99.90
7572;DHT22;3827;49.928;8.548;2022-08-25T13:17:03;33.40;99.90
7572;DHT22;3827;49.928;8.548;2022-08-25T13:19:30;32.90;99.90
7572;DHT22;3827;49.928;8.548;2022-08-25T13:21:59;32.70;99.90
7572;DHT22;3827;49.928;8.548;2022-08-25T13:24:29;32.50;99.90
7572;DHT22;3827;49.928;8.548;2022-08-25T13:26:58;32.50;99.90
7572;DHT22;3827;49.928;8.548;2022-08-25T13:29:28;32.40;99.90
7572;DHT22;3827;49.928;8.548;2022-08-25T13:31:57;32.00;99.90
7572;DHT22;3827;49.928;8.548;2022-08-25T13:34:26;31.60;99.90
7572;DHT22;3827;49.928;8.548;2022-08-25T13:36:55;31.40;99.90
7572;DHT22;3827;49.928;8.548;2022-08-25T13:39:40;31.40;99.90
7572;DHT22;3827;49.928;8.548;2022-08-25T13:42:13;32.50;99.90
7572;DHT22;3827;49.928;8.548;2022-08-25T13:44:42;33.10;99.90
7572;DHT22;3827;49.928;8.548;2022-08-25T13:47:12;33.40;99.90
7572;DHT22;3827;49.928;8.548;2022-08-25T13:49:41;33.60;99.90
7572;DHT22;3827;49.928;8.548;2022-08-25T13:52:26;32.90;99.90
7572;DHT22;3827;49.928;8.548;2022-08-25T13:54:57;32.70;99.90
7572;DHT22;3827;49.928;8.548;2022-08-25T13:57:26;32.30;99.90
7572;DHT22;3827;49.928;8.548;2022-08-25T14:00:00;32.00;99.90
7572;DHT22;3827;49.928;8.548;2022-08-25T14:02:43;31.70;99.90
7572;DHT22;3827;49.928;8.548;2022-08-25T14:05:12;31.60;99.90
7572;DHT22;3827;49.928;8.548;2022-08-25T14:07:52;31.60;99.90
7572;DHT22;3827;49.928;8.548;2022-08-25T14:10:32;32.10;99.90
7572;DHT22;3827;49.928;8.548;2022-08-25T14:13:11;32.60;99.90
7572;DHT22;3827;49.928;8.548;2022-08-25T14:15:40;32.40;99.90
7572;DHT22;3827;49.928;8.548;2022-08-25T14:18:11;32.70;99.90
7572;DHT22;3827;49.928;8.548;2022-08-25T14:20:44;33.30;99.90
7572;DHT22;3827;49.928;8.548;2022-08-25T14:23:15;33.60;99.90
7572;DHT22;3827;49.928;8.548;2022-08-25T14:25:43;34.00;99.90
7572;DHT22;3827;49.928;8.548;2022-08-25T14:28:12;34.50;99.90
7572;DHT22;3827;49.928;8.548;2022-08-25T14:30:42;35.10;99.90
7572;DHT22;3827;49.928;8.548;2022-08-25T14:33:10;34.90;99.90
7572;DHT22;3827;49.928;8.548;2022-08-25T14:35:38;34.40;99.90
7572;DHT22;3827;49.928;8.548;2022-08-25T14:38:09;34.60;99.90
7572;DHT22;3827;49.928;8.548;2022-08-25T14:40:36;35.30;99.90
7572;DHT22;3827;49.928;8.548;2022-08-25T14:43:04;35.30;99.90
7572;DHT22;3827;49.928;8.548;2022-08-25T14:45:31;35.20;99.90
7572;DHT22;3827;49.928;8.548;2022-08-25T14:48:04;35.20;99.90
7572;DHT22;3827;49.928;8.548;2022-08-25T14:50:32;35.30;99.90
7572;DHT22;3827;49.928;8.548;2022-08-25T14:53:00;35.50;99.90
7572;DHT22;3827;49.928;8.548;2022-08-25T14:55:27;35.40;99.90
7572;DHT22;3827;49.928;8.548;2022-08-25T14:57:54;35.60;99.90
7572;DHT22;3827;49.928;8.548;2022-08-25T15:00:21;35.50;99.90
7572;DHT22;3827;49.928;8.548;2022-08-25T15:02:49;35.40;99.90
7572;DHT22;3827;49.928;8.548;2022-08-25T15:05:20;35.40;99.90
7572;DHT22;3827;49.928;8.548;2022-08-25T15:07:49;35.40;99.90
7572;DHT22;3827;49.928;8.548;2022-08-25T15:10:34;34.40;99.90
7572;DHT22;3827;49.928;8.548;2022-08-25T15:13:00;34.80;99.90
7572;DHT22;3827;49.928;8.548;2022-08-25T15:15:27;34.50;99.90
7572;DHT22;3827;49.928;8.548;2022-08-25T15:17:55;34.30;99.90
7572;DHT22;3827;49.928;8.548;2022-08-25T15:20:23;34.00;99.90
7572;DHT22;3827;49.928;8.548;2022-08-25T15:22:50;33.50;99.90
7572;DHT22;3827;49.928;8.548;2022-08-25T15:25:17;33.10;99.90
7572;DHT22;3827;49.928;8.548;2022-08-25T15:27:45;32.80;99.90
7572;DHT22;3827;49.928;8.548;2022-08-25T15:30:13;32.60;99.90
7572;DHT22;3827;49.928;8.548;2022-08-25T15:32:40;32.10;99.90
7572;DHT22;3827;49.928;8.548;2022-08-25T15:35:07;31.60;99.90
7572;DHT22;3827;49.928;8.548;2022-08-25T15:37:36;31.50;99.90
7572;DHT22;3827;49.928;8.548;2022-08-25T15:40:03;31.20;99.90
7572;DHT22;3827;49.928;8.548;2022-08-25T15:42:36;31.50;99.90
7572;DHT22;3827;49.928;8.548;2022-08-25T15:45:09;31.70;99.90
7572;DHT22;3827;49.928;8.548;2022-08-25T15:47:37;31.90;99.90
7572;DHT22;3827;49.928;8.548;2022-08-25T15:50:06;32.10;99.90
7572;DHT22;3827;49.928;8.548;2022-08-25T15:52:33;32.30;99.90
7572;DHT22;3827;49.928;8.548;2022-08-25T15:55:02;32.70;99.90
7572;DHT22;3827;49.928;8.548;2022-08-25T15:57:29;32.90;99.90
7572;DHT22;3827;49.928;8.548;2022-08-25T15:59:56;32.70;99.90
7572;DHT22;3827;49.928;8.548;2022-08-25T16:02:24;32.80;99.90
7572;DHT22;3827;49.928;8.548;2022-08-25T16:04:52;33.00;99.90
7572;DHT22;3827;49.928;8.548;2022-08-25T16:07:19;33.10;99.90
7572;DHT22;3827;49.928;8.548;2022-08-25T16:09:46;33.10;99.90
7572;DHT22;3827;49.928;8.548;2022-08-25T16:12:15;32.90;99.90
7572;DHT22;3827;49.928;8.548;2022-08-25T16:14:42;32.90;99.90
7572;DHT22;3827;49.928;8.548;2022-08-25T16:17:10;32.80;99.90
7572;DHT22;3827;49.928;8.548;2022-08-25T16:19:37;32.70;99.90
7572;DHT22;3827;49.928;8.548;2022-08-25T16:22:04;32.70;99.90
7572;DHT22;3827;49.928;8.548;2022-08-25T16:24:31;32.80;99.90
7572;DHT22;3827;49.928;8.548;2022-08-25T16:26:59;32.70;99.90
7572;DHT22;3827;49.928;8.548;2022-08-25T16:29:32;32.60;99.90
7572;DHT22;3827;49.928;8.548;2022-08-25T16:32:01;32.50;99.90
7572;DHT22;3827;49.928;8.548;2022-08-25T16:34:29;32.30;99.90